Phuket, Thailand

5:21 AM ICT on August 31, 2014 (GMT +0700)
Ao Chalong Yacht Club | Change Station
CLOSE
Current Station
Personal Weather Station
Location: Wichit, PHUKET
Elevation: 20 ft
Nearby Weather Stations

Elev 20 ft 7.83 °N, 98.35 °E | Updated 1 minute ago

Mostly Cloudy
Mostly Cloudy
77.4 °F
Feels Like 79 °F
N
0.0
Wind Variable Wind from SW
Gusts 0.0 mph

Today
High -- | Low -- °F
--% Chance of Precip.
Yesterday
High -- | Low -- °F
Precip. -- in
6:18 AM 6:35 PM
Waxing Crescent, 25% visible
Pressure 29.80 in
Visibility 3.1 miles
Clouds Few 2000 ft
Mostly Cloudy 18000 ft
Heat Index 79 °F
Dew Point 77 °F
Humidity 98%
Rainfall 0.01 in
Snow Depth Not available.
UV 0 out of 12
Pollen Not available.
Air Quality Not available.
Flu Activity Not available.
METAR VTSG 302200Z 36002KT 5000 BR FEW020 BKN180 24/23 Q1009 A2980

More Conditions Fewer Conditions

Pressure 29.80 in
Visibility 3.1 miles
Clouds Few 2000 ft
Mostly Cloudy 18000 ft
Heat Index 79 °F
Dew Point 77 °F
Humidity 98%
Rainfall 0.01 in
Snow Depth Not available.
UV 0 out of 12
Pollen Not available.
Air Quality Not available.
Flu Activity Not available.
METAR VTSG 302200Z 36002KT 5000 BR FEW020 BKN180 24/23 Q1009 A2980

More Conditions Fewer Conditions

10-Day Weather Forecast

Almanac

Astronomy

Aug. 31, 2014 Rise Set
Actual Time 6:18 AM ICT 6:35 PM ICT
Civil Twilight 5:57 AM ICT 6:56 PM ICT
Nautical Twilight 5:33 AM ICT 7:21 PM ICT
Astronomical Twilight 5:08 AM ICT 7:45 PM ICT
Moon 10:29 AM ICT (8/31) 10:36 PM ICT (8/31)
Length of Visible Light 12h 58m
Length of Day
12h 16m
Tomorrow will be 0m 26s shorter.
Waxing Crescent, 25% of the Moon is Illuminated
Aug 30
Waxing Crescent
Sep 2
First Quarter
Sep 8
Full
Sep 15
Last Quarter
Sep 24
New

Yesterday's Extremes

Country Highs Country Lows

Community

WunderPhotos

Upload Photos

1,748,657 photos uploaded!

WunderBlogs® & News

Nearby

Snow Depth

Not available.

Earthquake Activity

City Distance Mag. Time & Date
No recent earthquake activity has been reported nearby.
Minimum magnitude displayed is 2.5.

Coastal Water Temperatures

Place Temperature
No Stations Reporting

Nearby Weather Stations